createdAt,value
2022-12-16T00:03:49.204Z,30.60
2022-12-16T00:06:21.503Z,25.20
2022-12-16T00:08:51.984Z,29.60
2022-12-16T00:11:19.867Z,28.75
2022-12-16T00:13:51.826Z,27.85
2022-12-16T00:18:54.852Z,26.23
2022-12-16T00:21:21.692Z,31.13
2022-12-16T00:23:50.522Z,27.60
2022-12-16T00:26:17.278Z,30.55
2022-12-16T00:28:46.385Z,26.80
2022-12-16T00:31:15.638Z,26.55
2022-12-16T00:33:47.190Z,24.92
2022-12-16T00:36:18.718Z,29.00
2022-12-16T00:38:47.553Z,29.85
2022-12-16T00:41:16.455Z,28.50
2022-12-16T00:43:43.181Z,28.85
2022-12-16T00:46:09.953Z,27.85
2022-12-16T00:48:36.726Z,27.80
2022-12-16T00:51:03.698Z,26.30
2022-12-16T00:53:33.311Z,31.98
2022-12-16T00:56:10.686Z,25.55
2022-12-16T00:58:42.685Z,30.48
2022-12-16T01:03:42.187Z,28.48
2022-12-16T01:06:18.602Z,22.75
2022-12-16T01:08:48.579Z,26.70
2022-12-16T01:11:20.648Z,31.10
2022-12-16T01:13:55.162Z,25.77
2022-12-16T01:16:22.272Z,26.90
2022-12-16T01:18:49.053Z,25.30
2022-12-16T01:21:16.368Z,24.52
2022-12-16T01:23:43.335Z,26.02
2022-12-16T01:26:15.431Z,28.30
2022-12-16T01:28:44.494Z,28.90
2022-12-16T01:31:13.475Z,26.60
2022-12-16T01:33:42.612Z,27.40
2022-12-16T01:36:09.958Z,23.45
2022-12-16T01:38:37.309Z,22.75
2022-12-16T01:41:05.027Z,23.48
2022-12-16T01:43:37.073Z,28.48
2022-12-16T01:46:20.771Z,27.75
2022-12-16T01:48:51.415Z,23.55
2022-12-16T01:51:27.225Z,26.65
2022-12-16T01:53:58.428Z,25.58
2022-12-16T01:56:28.974Z,27.98
2022-12-16T01:58:59.188Z,23.50
2022-12-16T02:01:28.848Z,26.08
2022-12-16T02:04:01.711Z,22.52
2022-12-16T02:06:31.649Z,23.85
2022-12-16T02:09:02.583Z,25.98
2022-12-16T02:11:57.011Z,28.80
2022-12-16T02:14:37.022Z,24.75
2022-12-16T02:17:21.483Z,24.48
2022-12-16T02:19:59.610Z,23.00
2022-12-16T02:22:59.736Z,28.90
2022-12-16T02:26:04.070Z,24.27
2022-12-16T02:29:07.706Z,26.27
2022-12-16T02:31:40.197Z,23.15
2022-12-16T02:34:10.509Z,21.38
2022-12-16T02:36:48.885Z,22.33
2022-12-16T02:39:33.555Z,25.33
2022-12-16T02:42:13.285Z,20.02
2022-12-16T02:44:49.093Z,25.98
2022-12-16T02:47:18.373Z,28.90
2022-12-16T02:49:51.457Z,25.50
2022-12-16T02:52:21.755Z,26.38
2022-12-16T02:54:51.399Z,25.48
2022-12-16T02:57:32.802Z,31.10
2022-12-16T03:00:04.842Z,29.30
2022-12-16T03:05:38.366Z,24.58
2022-12-16T03:08:12.175Z,29.45
2022-12-16T03:10:49.417Z,25.05
2022-12-16T03:13:20.968Z,28.00
2022-12-16T03:15:49.848Z,31.27
2022-12-16T03:18:18.717Z,25.92
2022-12-16T03:21:06.771Z,29.40
2022-12-16T03:23:48.198Z,26.45
2022-12-16T03:26:24.820Z,30.90
2022-12-16T03:29:07.373Z,32.80
2022-12-16T03:32:11.595Z,31.17
2022-12-16T03:34:45.877Z,30.88
2022-12-16T03:37:14.210Z,32.50
2022-12-16T03:40:03.354Z,33.97
2022-12-16T03:42:30.724Z,31.75
2022-12-16T03:44:57.806Z,35.10
2022-12-16T03:47:33.498Z,32.80
2022-12-16T03:50:04.890Z,30.90
2022-12-16T03:52:34.068Z,32.40
2022-12-16T03:55:01.561Z,32.58
2022-12-16T03:57:28.276Z,35.03
2022-12-16T03:59:54.980Z,31.85
2022-12-16T04:02:24.285Z,33.58
2022-12-16T04:04:53.283Z,32.58
2022-12-16T04:07:24.770Z,36.28
2022-12-16T04:09:52.540Z,29.02
2022-12-16T04:12:39.281Z,36.40
2022-12-16T04:15:25.640Z,40.20
2022-12-16T04:18:11.192Z,36.25
2022-12-16T04:21:01.080Z,34.58
2022-12-16T04:23:50.090Z,36.00
2022-12-16T04:26:19.193Z,34.88
2022-12-16T04:28:48.114Z,35.05
2022-12-16T04:31:14.912Z,34.50
2022-12-16T04:34:00.311Z,37.90
2022-12-16T04:36:45.764Z,39.10
2022-12-16T04:39:31.163Z,37.03
2022-12-16T04:42:16.486Z,36.60
2022-12-16T04:45:01.809Z,36.55
2022-12-16T04:47:51.486Z,36.83
2022-12-16T04:50:39.551Z,38.63
2022-12-16T04:53:27.407Z,37.53
2022-12-16T04:56:12.736Z,38.00
2022-12-16T04:58:58.174Z,40.22
2022-12-16T05:01:43.975Z,37.97
2022-12-16T05:04:29.428Z,35.35
2022-12-16T05:07:16.848Z,34.75
2022-12-16T05:10:02.291Z,37.03
2022-12-16T05:12:49.850Z,34.78
2022-12-16T05:15:35.392Z,34.33
2022-12-16T05:18:30.760Z,38.88
2022-12-16T05:21:17.597Z,38.35
2022-12-16T05:24:06.166Z,37.60
2022-12-16T05:26:51.559Z,38.50
2022-12-16T05:29:36.876Z,39.40
2022-12-16T05:32:22.380Z,42.05
2022-12-16T05:35:07.659Z,35.75
2022-12-16T05:37:55.658Z,36.65
2022-12-16T05:40:43.676Z,44.58
2022-12-16T05:43:29.297Z,41.70
2022-12-16T05:46:15.016Z,38.85
2022-12-16T05:49:00.201Z,37.25
2022-12-16T05:51:45.583Z,36.53
2022-12-16T05:54:41.625Z,39.55
2022-12-16T05:57:27.141Z,41.30
2022-12-16T06:00:17.171Z,43.33
2022-12-16T06:03:02.544Z,41.83
2022-12-16T06:05:47.863Z,40.88
2022-12-16T06:08:33.410Z,38.78
2022-12-16T06:11:18.807Z,38.67
2022-12-16T06:14:04.285Z,49.65
2022-12-16T06:16:49.780Z,43.63
2022-12-16T06:19:35.018Z,39.22
2022-12-16T06:22:23.189Z,41.00
2022-12-16T06:25:11.066Z,39.28
2022-12-16T06:27:56.525Z,38.40
2022-12-16T06:30:42.041Z,39.95
2022-12-16T06:33:27.545Z,38.97
2022-12-16T06:36:15.091Z,41.22
2022-12-16T06:39:03.367Z,34.53
2022-12-16T06:41:50.693Z,40.40
2022-12-16T06:44:36.244Z,43.72
2022-12-16T06:47:21.731Z,41.17
2022-12-16T06:50:07.193Z,35.88
2022-12-16T06:52:55.109Z,40.47
2022-12-16T06:55:43.313Z,38.63
2022-12-16T06:58:30.642Z,42.40
2022-12-16T07:01:15.864Z,42.50
2022-12-16T07:04:01.341Z,35.67
2022-12-16T07:06:46.721Z,35.08
2022-12-16T07:09:32.030Z,40.90
2022-12-16T07:12:24.003Z,37.97
2022-12-16T07:15:11.832Z,40.08
2022-12-16T07:18:02.843Z,39.13
2022-12-16T07:20:48.336Z,36.58
2022-12-16T07:23:34.085Z,39.20
2022-12-16T07:26:21.882Z,36.50
2022-12-16T07:29:07.420Z,36.10
2022-12-16T07:31:52.938Z,36.95
2022-12-16T07:34:42.047Z,36.33
2022-12-16T07:37:29.221Z,29.50
2022-12-16T07:40:16.213Z,29.75
2022-12-16T07:43:04.313Z,27.77
2022-12-16T07:45:49.717Z,25.63
2022-12-16T07:48:35.303Z,26.90
2022-12-16T07:51:20.713Z,32.75
2022-12-16T07:54:10.764Z,27.15
2022-12-16T07:56:56.206Z,29.08
2022-12-16T07:59:41.576Z,30.40
2022-12-16T08:02:29.076Z,25.70
2022-12-16T08:05:14.732Z,26.08
2022-12-16T08:08:01.401Z,25.77
2022-12-16T08:10:46.800Z,26.52
2022-12-16T08:13:32.328Z,24.23
2022-12-16T08:16:17.552Z,26.30
2022-12-16T08:22:10.303Z,23.52
2022-12-16T08:24:58.387Z,20.48
2022-12-16T08:27:43.836Z,20.60
2022-12-16T08:30:29.786Z,25.35
2022-12-16T08:33:19.528Z,25.40
2022-12-16T08:36:06.193Z,30.45
2022-12-16T08:38:51.526Z,20.42
2022-12-16T08:41:36.935Z,20.50
2022-12-16T08:44:22.416Z,25.00
2022-12-16T08:47:07.966Z,23.00
2022-12-16T08:49:57.741Z,27.08
2022-12-16T08:52:46.766Z,26.95
2022-12-16T08:55:31.948Z,21.75
2022-12-16T08:58:17.339Z,23.33
2022-12-16T09:01:06.980Z,21.42
2022-12-16T09:03:52.815Z,24.58
2022-12-16T09:06:40.579Z,35.97
2022-12-16T09:09:27.240Z,26.17
2022-12-16T09:12:12.904Z,26.48
2022-12-16T09:14:58.621Z,25.60
2022-12-16T09:17:46.046Z,22.90
2022-12-16T09:20:31.498Z,25.60
2022-12-16T09:23:23.710Z,25.48
2022-12-16T09:28:54.201Z,22.27
2022-12-16T09:31:40.367Z,22.35
2022-12-16T09:34:30.462Z,23.70
2022-12-16T09:37:18.267Z,22.40
2022-12-16T09:40:03.680Z,25.65
2022-12-16T09:43:08.958Z,26.42
2022-12-16T09:46:02.200Z,25.48
2022-12-16T09:49:12.193Z,28.17
2022-12-16T09:51:58.790Z,21.75
2022-12-16T09:54:48.221Z,24.17
2022-12-16T09:57:34.518Z,23.20
2022-12-16T10:00:25.652Z,22.17
2022-12-16T10:03:11.627Z,31.55
2022-12-16T10:06:39.056Z,24.77
2022-12-16T10:09:39.393Z,23.02
2022-12-16T10:12:59.642Z,20.77
2022-12-16T10:15:52.743Z,26.63
2022-12-16T10:18:52.689Z,20.08
2022-12-16T10:21:47.160Z,24.83
2022-12-16T10:24:38.278Z,22.00
2022-12-16T10:27:34.488Z,22.88
2022-12-16T10:30:21.557Z,25.77
2022-12-16T10:33:10.558Z,22.48
2022-12-16T10:36:06.496Z,19.42
2022-12-16T10:39:00.941Z,24.83
2022-12-16T10:41:52.789Z,20.20
2022-12-16T10:45:08.974Z,24.35
2022-12-16T10:47:54.097Z,20.05
2022-12-16T10:50:40.296Z,20.80
2022-12-16T10:53:45.455Z,21.58
2022-12-16T10:56:55.992Z,19.73
2022-12-16T10:59:43.045Z,18.27
2022-12-16T11:02:38.720Z,19.65
2022-12-16T11:05:59.454Z,22.73
2022-12-16T11:08:51.029Z,21.17
2022-12-16T11:11:41.104Z,19.40
2022-12-16T11:14:36.720Z,17.80
2022-12-16T11:17:33.980Z,19.30
2022-12-16T11:20:39.947Z,21.70
2022-12-16T11:23:39.328Z,21.55
2022-12-16T11:26:37.945Z,18.27
2022-12-16T11:29:40.820Z,16.38
2022-12-16T11:32:37.754Z,19.15
2022-12-16T11:35:28.754Z,21.02
2022-12-16T11:38:16.225Z,19.63
2022-12-16T11:41:02.234Z,19.30
2022-12-16T11:43:48.754Z,16.52
2022-12-16T11:46:43.406Z,17.55
2022-12-16T11:49:42.744Z,19.55
2022-12-16T11:52:37.237Z,19.05
2022-12-16T11:56:12.687Z,18.52
2022-12-16T11:59:07.010Z,18.67
2022-12-16T12:02:03.752Z,18.92
2022-12-16T12:04:49.441Z,19.50
2022-12-16T12:07:45.612Z,21.30
2022-12-16T12:10:34.730Z,15.80
2022-12-16T12:13:46.353Z,15.15
2022-12-16T12:16:44.232Z,18.23
2022-12-16T12:19:43.797Z,20.08
2022-12-16T12:22:58.079Z,17.58
2022-12-16T12:26:04.436Z,17.48
2022-12-16T12:29:16.994Z,20.02
2022-12-16T12:35:05.936Z,16.75
2022-12-16T12:38:02.063Z,17.30
2022-12-16T12:41:13.164Z,17.48
2022-12-16T12:44:13.654Z,21.15
2022-12-16T12:47:10.662Z,17.15
2022-12-16T12:49:56.174Z,18.40
2022-12-16T12:53:14.750Z,18.33
2022-12-16T12:56:03.211Z,18.25
2022-12-16T12:58:53.230Z,16.83
2022-12-16T13:01:48.025Z,21.92
2022-12-16T13:04:38.186Z,16.73
2022-12-16T13:07:24.689Z,20.23
2022-12-16T13:10:35.094Z,19.23
2022-12-16T13:13:36.202Z,16.13
2022-12-16T13:16:23.525Z,16.07
2022-12-16T13:19:47.934Z,18.85
2022-12-16T13:22:50.085Z,18.20
2022-12-16T13:26:03.495Z,18.38
2022-12-16T13:28:58.112Z,18.75
2022-12-16T13:31:47.638Z,19.50
2022-12-16T13:34:36.011Z,19.08
2022-12-16T13:37:31.069Z,17.13
2022-12-16T13:40:26.046Z,18.67
2022-12-16T13:43:18.305Z,16.13
2022-12-16T13:46:16.153Z,17.98
2022-12-16T13:49:01.357Z,18.60
2022-12-16T13:51:55.512Z,18.90
2022-12-16T13:55:21.416Z,18.08
2022-12-16T13:58:16.131Z,16.63
2022-12-16T14:01:02.741Z,16.92
2022-12-16T14:04:06.891Z,17.08
2022-12-16T14:06:55.253Z,17.33
2022-12-16T14:09:56.039Z,19.13
2022-12-16T14:13:05.693Z,18.33
2022-12-16T14:16:13.090Z,17.95
2022-12-16T14:19:23.484Z,18.75
2022-12-16T14:22:23.713Z,19.58
2022-12-16T14:25:12.086Z,15.98
2022-12-16T14:28:00.525Z,19.73
2022-12-16T14:30:46.846Z,18.50
2022-12-16T14:33:39.369Z,18.67
2022-12-16T14:36:41.514Z,18.02
2022-12-16T14:39:30.683Z,19.75
2022-12-16T14:42:16.013Z,19.33
2022-12-16T14:45:04.034Z,23.45
2022-12-16T14:47:50.703Z,20.55
2022-12-16T14:50:47.316Z,19.02
2022-12-16T14:53:42.944Z,17.55
2022-12-16T14:56:42.222Z,18.15
2022-12-16T14:59:38.111Z,16.35
2022-12-16T15:02:49.067Z,18.42
2022-12-16T15:05:34.754Z,19.25
2022-12-16T15:08:20.047Z,18.83
2022-12-16T15:11:06.545Z,19.83
2022-12-16T15:13:56.661Z,21.17
2022-12-16T15:16:52.147Z,36.25
2022-12-16T15:19:40.945Z,20.40
2022-12-16T15:22:33.368Z,18.90
2022-12-16T15:25:19.341Z,16.85
2022-12-16T15:28:15.574Z,19.35
2022-12-16T15:31:07.744Z,18.00
2022-12-16T15:36:44.827Z,18.55
2022-12-16T15:39:43.958Z,19.05
2022-12-16T15:43:08.603Z,16.83
2022-12-16T15:45:54.759Z,15.63
2022-12-16T15:48:40.207Z,17.08
2022-12-16T15:51:49.177Z,17.67
2022-12-16T15:54:40.916Z,17.95
2022-12-16T15:57:52.900Z,16.30
2022-12-16T16:00:42.792Z,17.70
2022-12-16T16:03:57.019Z,16.58
2022-12-16T16:06:49.215Z,19.30
2022-12-16T16:09:40.244Z,18.40
2022-12-16T16:12:28.876Z,17.85
2022-12-16T16:15:14.296Z,18.92
2022-12-16T16:17:59.899Z,19.88
2022-12-16T16:20:45.414Z,19.10
2022-12-16T16:23:31.032Z,20.15
2022-12-16T16:26:16.651Z,19.77
2022-12-16T16:29:02.221Z,18.95
2022-12-16T16:31:47.874Z,18.55
2022-12-16T16:34:33.493Z,17.77
2022-12-16T16:37:18.955Z,19.45
2022-12-16T16:40:04.510Z,18.48
2022-12-16T16:42:49.960Z,19.35
2022-12-16T16:45:35.552Z,20.23
2022-12-16T16:48:33.125Z,20.30
2022-12-16T16:51:19.629Z,20.08
2022-12-16T16:54:05.727Z,19.92
2022-12-16T16:56:57.472Z,16.80
2022-12-16T16:59:43.481Z,20.98
2022-12-16T17:02:42.945Z,16.30
2022-12-16T17:05:31.688Z,20.95
2022-12-16T17:08:17.088Z,23.33
2022-12-16T17:11:02.679Z,17.23
2022-12-16T17:13:48.011Z,16.73
2022-12-16T17:16:35.455Z,21.33
2022-12-16T17:19:34.883Z,17.58
2022-12-16T17:22:20.381Z,16.52
2022-12-16T17:25:05.702Z,17.13
2022-12-16T17:27:51.005Z,19.33
2022-12-16T17:30:44.927Z,17.40
2022-12-16T17:33:37.792Z,14.88
2022-12-16T17:36:31.930Z,17.15
2022-12-16T17:39:20.249Z,19.70
2022-12-16T17:42:16.299Z,18.05
2022-12-16T17:45:01.705Z,19.70
2022-12-16T17:47:47.306Z,20.20
2022-12-16T17:50:32.411Z,22.95
2022-12-16T17:53:18.400Z,15.25
2022-12-16T17:56:06.502Z,17.25
2022-12-16T17:58:56.620Z,19.90
2022-12-16T18:01:42.529Z,18.42
2022-12-16T18:04:30.930Z,19.55
2022-12-16T18:07:16.575Z,18.73
2022-12-16T18:10:01.963Z,16.60
2022-12-16T18:12:47.863Z,16.45
2022-12-16T18:15:35.815Z,19.50
2022-12-16T18:18:23.627Z,18.30
2022-12-16T18:21:09.268Z,21.08
2022-12-16T18:23:54.837Z,20.80
2022-12-16T18:26:40.278Z,18.98
2022-12-16T18:29:25.680Z,18.00
2022-12-16T18:32:15.726Z,16.33
2022-12-16T18:35:01.136Z,19.50
2022-12-16T18:37:49.048Z,18.65
2022-12-16T18:40:34.708Z,18.52
2022-12-16T18:43:22.613Z,15.05
2022-12-16T18:46:13.837Z,22.05
2022-12-16T18:48:59.090Z,19.50
2022-12-16T18:51:47.011Z,17.20
2022-12-16T18:54:34.442Z,24.35
2022-12-16T18:57:19.834Z,25.70
2022-12-16T19:00:07.863Z,24.70
2022-12-16T19:02:53.258Z,21.88
2022-12-16T19:05:39.027Z,21.88
2022-12-16T19:08:26.646Z,20.23
2022-12-16T19:11:15.591Z,24.67
2022-12-16T19:14:01.165Z,19.00
2022-12-16T19:16:46.825Z,22.98
2022-12-16T19:19:31.936Z,21.90
2022-12-16T19:22:17.557Z,20.85
2022-12-16T19:25:03.017Z,24.15
2022-12-16T19:27:48.540Z,26.02
2022-12-16T19:30:37.293Z,27.80
2022-12-16T19:33:27.372Z,24.65
2022-12-16T19:36:14.821Z,23.58
2022-12-16T19:39:05.375Z,26.35
2022-12-16T19:41:53.493Z,25.75
2022-12-16T19:44:41.876Z,25.25
2022-12-16T19:47:26.921Z,22.55
2022-12-16T19:50:12.407Z,25.23
2022-12-16T19:52:57.636Z,24.58
2022-12-16T19:55:43.016Z,20.88
2022-12-16T19:58:28.526Z,25.95
2022-12-16T20:01:16.598Z,21.33
2022-12-16T20:04:02.047Z,20.55
2022-12-16T20:06:47.610Z,22.80
2022-12-16T20:09:35.556Z,27.05
2022-12-16T20:12:21.146Z,21.00
2022-12-16T20:15:06.696Z,25.77
2022-12-16T20:17:56.573Z,22.83
2022-12-16T20:20:42.053Z,23.40
2022-12-16T20:23:32.145Z,23.55
2022-12-16T20:26:20.249Z,22.77
2022-12-16T20:29:08.561Z,24.90
2022-12-16T20:35:00.124Z,23.17
2022-12-16T20:37:47.982Z,24.10
2022-12-16T20:40:33.462Z,19.58
2022-12-16T20:43:18.885Z,20.35
2022-12-16T20:46:04.585Z,24.13
2022-12-16T20:48:50.070Z,22.35
2022-12-16T20:51:35.755Z,20.60
2022-12-16T20:54:21.244Z,25.27
2022-12-16T20:57:12.734Z,22.10
2022-12-16T20:59:58.387Z,20.52
2022-12-16T21:02:46.346Z,23.00
2022-12-16T21:05:35.073Z,22.90
2022-12-16T21:08:20.434Z,21.92
2022-12-16T21:11:14.044Z,27.42
2022-12-16T21:13:59.608Z,20.88
2022-12-16T21:16:47.682Z,24.27
2022-12-16T21:19:35.750Z,31.08
2022-12-16T21:22:21.195Z,24.95
2022-12-16T21:25:06.614Z,28.65
2022-12-16T21:27:54.309Z,28.75
2022-12-16T21:30:43.243Z,24.85
2022-12-16T21:33:38.994Z,27.05
2022-12-16T21:36:25.180Z,25.10
2022-12-16T21:39:10.561Z,25.23
2022-12-16T21:41:58.245Z,27.55
2022-12-16T21:44:45.741Z,26.70
2022-12-16T21:47:33.185Z,28.48
2022-12-16T21:50:21.077Z,26.65
2022-12-16T21:53:06.861Z,26.13
2022-12-16T21:55:52.365Z,33.28
2022-12-16T21:58:41.207Z,26.65
2022-12-16T22:01:27.714Z,29.35
2022-12-16T22:04:13.281Z,27.17
2022-12-16T22:07:03.201Z,25.50
2022-12-16T22:09:48.469Z,22.10
2022-12-16T22:12:37.387Z,27.58
2022-12-16T22:15:25.871Z,24.10
2022-12-16T22:18:11.357Z,23.95
2022-12-16T22:20:59.497Z,21.95
2022-12-16T22:23:48.511Z,23.30
2022-12-16T22:26:36.589Z,23.08
2022-12-16T22:29:21.822Z,21.33
2022-12-16T22:32:09.326Z,21.67
2022-12-16T22:34:57.507Z,21.88
2022-12-16T22:36:21.233Z,21.48
2022-12-16T22:37:42.831Z,22.08
2022-12-16T22:40:28.208Z,22.10
2022-12-16T22:43:13.745Z,25.75
2022-12-16T22:46:01.249Z,20.25
2022-12-16T22:48:49.532Z,22.65
2022-12-16T22:51:35.462Z,22.63
2022-12-16T22:54:23.538Z,23.17
2022-12-16T22:57:09.092Z,22.05
2022-12-16T22:59:57.366Z,23.00
2022-12-16T23:02:42.763Z,23.35
2022-12-16T23:05:30.244Z,19.02
2022-12-16T23:08:15.750Z,21.70
2022-12-16T23:11:03.140Z,21.85
2022-12-16T23:13:48.329Z,22.98
2022-12-16T23:16:33.699Z,23.10
2022-12-16T23:19:19.189Z,23.40
2022-12-16T23:22:19.942Z,23.20
2022-12-16T23:25:05.425Z,24.42
2022-12-16T23:27:51.058Z,20.27
2022-12-16T23:30:37.389Z,25.08
2022-12-16T23:33:22.937Z,22.67
2022-12-16T23:36:08.436Z,21.13
2022-12-16T23:38:55.413Z,20.58
2022-12-16T23:41:43.865Z,21.27
2022-12-16T23:44:31.483Z,25.45
2022-12-16T23:47:16.864Z,20.60
2022-12-16T23:50:02.390Z,23.05
2022-12-16T23:52:48.011Z,23.08
2022-12-16T23:55:33.354Z,17.75
2022-12-16T23:58:20.300Z,24.25
